createdAt,value
2023-02-22T00:01:50.779Z,7.52
2023-02-22T00:03:55.479Z,7.48
2023-02-22T00:05:59.838Z,7.45
2023-02-22T00:08:02.371Z,7.38
2023-02-22T00:10:09.117Z,7.36
2023-02-22T00:12:11.768Z,7.32
2023-02-22T00:14:14.338Z,7.32
2023-02-22T00:16:18.521Z,7.27
2023-02-22T00:18:21.141Z,7.27
2023-02-22T00:20:25.060Z,7.28
2023-02-22T00:22:27.672Z,7.25
2023-02-22T00:24:31.367Z,7.22
2023-02-22T00:26:34.683Z,7.17
2023-02-22T00:28:37.955Z,7.16
2023-02-22T00:30:43.554Z,7.17
2023-02-22T00:32:47.005Z,7.20
2023-02-22T00:34:53.059Z,7.21
2023-02-22T00:36:57.006Z,7.28
2023-02-22T00:38:59.536Z,7.28
2023-02-22T00:41:02.142Z,7.31
2023-02-22T00:43:07.017Z,7.32
2023-02-22T00:45:10.165Z,7.32
2023-02-22T00:47:12.733Z,7.35
2023-02-22T00:49:15.296Z,7.33
2023-02-22T00:51:18.239Z,7.26
2023-02-22T00:53:23.351Z,7.19
2023-02-22T00:55:27.585Z,7.13
2023-02-22T00:57:30.160Z,7.03
2023-02-22T00:59:32.732Z,6.98
2023-02-22T01:01:35.408Z,6.97
2023-02-22T01:03:41.245Z,6.91
2023-02-22T01:05:44.523Z,6.86
2023-02-22T01:07:47.778Z,6.83
2023-02-22T01:09:51.682Z,6.79
2023-02-22T01:11:56.215Z,6.79
2023-02-22T01:13:59.929Z,6.74
2023-02-22T01:16:03.192Z,6.71
2023-02-22T01:18:06.522Z,6.67
2023-02-22T01:20:12.692Z,6.66
2023-02-22T01:22:15.269Z,6.67
2023-02-22T01:24:18.979Z,6.67
2023-02-22T01:26:22.948Z,6.78
2023-02-22T01:28:25.895Z,6.78
2023-02-22T01:30:31.076Z,6.73
2023-02-22T01:32:36.980Z,6.73
2023-02-22T01:34:40.079Z,6.71
2023-02-22T01:36:42.876Z,6.71
2023-02-22T01:38:46.040Z,6.73
2023-02-22T01:40:50.631Z,6.76
2023-02-22T01:42:57.722Z,6.66
2023-02-22T01:45:52.120Z,6.54
2023-02-22T01:47:55.531Z,6.49
2023-02-22T01:49:58.178Z,6.48
2023-02-22T01:52:03.748Z,6.48
2023-02-22T01:54:13.583Z,6.51
2023-02-22T01:56:17.033Z,6.52
2023-02-22T01:58:23.019Z,6.56
2023-02-22T02:00:27.659Z,6.54
2023-02-22T02:02:30.413Z,6.55
2023-02-22T02:04:35.252Z,6.57
2023-02-22T02:06:38.638Z,6.59
2023-02-22T02:08:49.882Z,6.61
2023-02-22T02:10:54.474Z,6.58
2023-02-22T02:12:59.260Z,6.57
2023-02-22T02:15:18.823Z,6.55
2023-02-22T02:17:23.937Z,6.54
2023-02-22T02:19:36.866Z,6.52
2023-02-22T02:22:14.151Z,6.50
2023-02-22T02:25:08.642Z,6.45
2023-02-22T02:27:18.136Z,6.42
2023-02-22T02:29:48.368Z,6.39
2023-02-22T02:32:21.112Z,6.38
2023-02-22T02:34:31.866Z,6.37
2023-02-22T02:36:44.648Z,6.32
2023-02-22T02:38:51.749Z,6.30
2023-02-22T02:41:04.428Z,6.28
2023-02-22T02:43:13.346Z,6.25
2023-02-22T02:45:20.184Z,6.21
2023-02-22T02:47:28.852Z,6.21
2023-02-22T02:49:36.560Z,6.22
2023-02-22T02:51:42.811Z,6.21
2023-02-22T02:53:51.215Z,6.18
2023-02-22T02:55:53.849Z,6.13
2023-02-22T02:57:56.735Z,6.10
2023-02-22T02:59:59.349Z,6.05
2023-02-22T03:02:15.323Z,6.01
2023-02-22T03:04:28.684Z,5.98
2023-02-22T03:06:51.074Z,5.95
2023-02-22T03:09:02.384Z,5.97
2023-02-22T03:11:15.128Z,5.87
2023-02-22T03:13:26.490Z,5.85
2023-02-22T03:15:43.582Z,5.83
2023-02-22T03:17:54.173Z,5.78
2023-02-22T03:20:02.721Z,5.77
2023-02-22T03:22:14.050Z,5.72
2023-02-22T03:24:23.040Z,5.69
2023-02-22T03:26:32.752Z,5.65
2023-02-22T03:28:41.086Z,5.64
2023-02-22T03:30:49.216Z,5.61
2023-02-22T03:32:57.070Z,5.54
2023-02-22T03:35:06.691Z,5.50
2023-02-22T03:37:15.877Z,5.46
2023-02-22T03:39:20.412Z,5.53
2023-02-22T03:41:26.155Z,5.39
2023-02-22T03:43:33.819Z,5.42
2023-02-22T03:45:38.302Z,5.41
2023-02-22T03:47:44.502Z,5.36
2023-02-22T03:49:53.083Z,5.26
2023-02-22T03:51:57.357Z,5.20
2023-02-22T03:54:00.416Z,5.18
2023-02-22T03:56:07.189Z,5.16
2023-02-22T03:58:13.178Z,5.10
2023-02-22T04:00:21.430Z,5.09
2023-02-22T04:02:24.036Z,5.10
2023-02-22T04:04:27.368Z,5.12
2023-02-22T04:06:30.518Z,5.13
2023-02-22T04:08:35.191Z,5.18
2023-02-22T04:10:38.474Z,5.20
2023-02-22T04:12:41.067Z,5.21
2023-02-22T04:14:43.643Z,5.33
2023-02-22T04:16:46.247Z,5.31
2023-02-22T04:18:48.817Z,5.30
2023-02-22T04:20:51.677Z,5.29
2023-02-22T04:22:55.300Z,5.26
2023-02-22T04:24:59.263Z,5.25
2023-02-22T04:27:01.846Z,5.25
2023-02-22T04:29:04.761Z,5.23
2023-02-22T04:31:07.443Z,5.21
2023-02-22T04:33:10.651Z,5.20
2023-02-22T04:35:13.605Z,5.21
2023-02-22T04:37:16.276Z,5.23
2023-02-22T04:39:19.014Z,5.21
2023-02-22T04:41:25.239Z,5.19
2023-02-22T04:43:28.167Z,5.18
2023-02-22T04:45:30.798Z,5.16
2023-02-22T04:47:33.360Z,5.13
2023-02-22T04:49:38.672Z,5.10
2023-02-22T04:51:42.475Z,5.10
2023-02-22T04:53:45.151Z,5.12
2023-02-22T04:55:47.729Z,5.12
2023-02-22T04:57:51.829Z,5.14
2023-02-22T04:59:54.608Z,5.13
2023-02-22T05:01:57.230Z,5.17
2023-02-22T05:03:59.809Z,5.20
2023-02-22T05:06:02.409Z,5.20
2023-02-22T05:08:08.048Z,5.17
2023-02-22T05:10:11.266Z,5.19
2023-02-22T05:12:13.941Z,5.21
2023-02-22T05:14:18.007Z,5.16
2023-02-22T05:16:20.684Z,5.20
2023-02-22T05:18:23.396Z,5.19
2023-02-22T05:20:30.534Z,5.22
2023-02-22T05:22:33.192Z,5.21
2023-02-22T05:24:35.809Z,5.22
2023-02-22T05:26:38.368Z,5.22
2023-02-22T05:28:41.034Z,5.22
2023-02-22T05:30:45.336Z,5.20
2023-02-22T05:32:47.983Z,5.21
2023-02-22T05:34:50.596Z,5.17
2023-02-22T05:36:53.202Z,5.14
2023-02-22T05:38:55.938Z,5.15
2023-02-22T05:40:58.601Z,5.12
2023-02-22T05:43:02.173Z,5.09
2023-02-22T05:45:05.159Z,5.09
2023-02-22T05:47:09.079Z,5.11
2023-02-22T05:49:11.698Z,5.31
2023-02-22T05:51:14.496Z,5.12
2023-02-22T05:53:17.152Z,5.08
2023-02-22T05:55:22.253Z,5.07
2023-02-22T05:57:24.848Z,5.04
2023-02-22T05:59:27.959Z,5.07
2023-02-22T06:01:30.543Z,5.08
2023-02-22T06:03:34.443Z,5.06
2023-02-22T06:05:37.839Z,5.05
2023-02-22T06:07:40.431Z,5.05
2023-02-22T06:09:43.133Z,5.02
2023-02-22T06:11:45.739Z,5.02
2023-02-22T06:13:52.450Z,5.02
2023-02-22T06:15:55.072Z,5.00
2023-02-22T06:17:58.787Z,5.01
2023-02-22T06:20:02.865Z,5.05
2023-02-22T06:22:05.449Z,5.05
2023-02-22T06:24:08.277Z,5.09
2023-02-22T06:26:10.885Z,5.07
2023-02-22T06:28:13.457Z,5.10
2023-02-22T06:30:18.649Z,5.13
2023-02-22T06:32:21.269Z,5.09
2023-02-22T06:34:23.845Z,5.05
2023-02-22T06:36:27.823Z,5.04
2023-02-22T06:38:30.418Z,5.06
2023-02-22T06:40:33.075Z,5.03
2023-02-22T06:42:35.648Z,5.01
2023-02-22T06:44:38.188Z,5.00
2023-02-22T06:46:40.794Z,5.01
2023-02-22T06:48:43.372Z,5.02
2023-02-22T06:50:45.958Z,5.02
2023-02-22T06:52:49.896Z,5.03
2023-02-22T06:54:52.823Z,5.05
2023-02-22T06:56:55.394Z,5.07
2023-02-22T06:58:58.074Z,5.07
2023-02-22T07:01:02.806Z,5.08
2023-02-22T07:03:05.796Z,5.11
2023-02-22T07:05:08.887Z,5.12
2023-02-22T07:07:11.510Z,5.15
2023-02-22T07:09:16.430Z,5.17
2023-02-22T07:11:19.397Z,5.23
2023-02-22T07:13:22.035Z,5.24
2023-02-22T07:15:26.477Z,5.28
2023-02-22T07:17:29.022Z,5.33
2023-02-22T07:19:31.614Z,5.37
2023-02-22T07:21:34.200Z,5.37
2023-02-22T07:23:36.785Z,5.40
2023-02-22T07:25:40.685Z,5.44
2023-02-22T07:27:43.628Z,5.46
2023-02-22T07:29:46.773Z,5.49
2023-02-22T07:31:49.622Z,5.51
2023-02-22T07:33:52.464Z,5.55
2023-02-22T07:35:55.044Z,5.56
2023-02-22T07:37:57.991Z,5.59
2023-02-22T07:40:00.592Z,5.61
2023-02-22T07:42:04.840Z,5.68
2023-02-22T07:44:07.449Z,5.73
2023-02-22T07:46:10.075Z,5.71
2023-02-22T07:48:14.338Z,5.71
2023-02-22T07:50:20.330Z,5.90
2023-02-22T07:52:22.908Z,5.73
2023-02-22T07:54:25.478Z,6.02
2023-02-22T07:56:28.101Z,6.23
2023-02-22T07:58:33.049Z,6.29
2023-02-22T08:00:37.533Z,6.14
2023-02-22T08:02:40.179Z,6.09
2023-02-22T08:04:42.776Z,6.09
2023-02-22T08:06:46.286Z,5.95
2023-02-22T08:08:48.844Z,6.03
2023-02-22T08:10:52.850Z,5.96
2023-02-22T08:12:56.180Z,6.00
2023-02-22T08:15:00.357Z,6.09
2023-02-22T08:17:02.978Z,6.13
2023-02-22T08:19:05.634Z,6.09
2023-02-22T08:21:08.278Z,5.95
2023-02-22T08:23:12.355Z,6.07
2023-02-22T08:25:16.535Z,5.97
2023-02-22T08:27:23.355Z,5.97
2023-02-22T08:29:33.315Z,5.99
2023-02-22T08:31:37.372Z,6.01
2023-02-22T08:33:39.963Z,6.06
2023-02-22T08:35:42.867Z,6.08
2023-02-22T08:37:46.533Z,6.12
2023-02-22T08:39:49.207Z,6.18
2023-02-22T08:41:51.820Z,6.27
2023-02-22T08:43:54.544Z,6.44
2023-02-22T08:45:57.920Z,6.47
2023-02-22T08:48:01.951Z,6.46
2023-02-22T08:50:05.053Z,6.68
2023-02-22T08:52:07.633Z,6.61
2023-02-22T08:54:10.268Z,6.64
2023-02-22T08:56:12.919Z,7.01
2023-02-22T08:58:15.640Z,7.01
2023-02-22T09:00:19.516Z,6.89
2023-02-22T09:02:23.233Z,6.92
2023-02-22T09:04:27.392Z,7.01
2023-02-22T09:06:30.593Z,7.16
2023-02-22T09:08:33.139Z,7.15
2023-02-22T09:10:36.535Z,7.14
2023-02-22T09:12:39.205Z,7.10
2023-02-22T09:14:42.994Z,7.11
2023-02-22T09:16:46.265Z,7.09
2023-02-22T09:18:48.884Z,7.10
2023-02-22T09:20:53.348Z,7.12
2023-02-22T09:22:56.279Z,7.12
2023-02-22T09:25:02.643Z,7.13
2023-02-22T09:27:12.138Z,7.39
2023-02-22T09:29:15.040Z,7.35
2023-02-22T09:31:18.044Z,7.25
2023-02-22T09:33:21.991Z,7.26
2023-02-22T09:35:27.020Z,7.25
2023-02-22T09:37:31.280Z,7.24
2023-02-22T09:39:37.585Z,7.48
2023-02-22T09:41:50.035Z,7.41
2023-02-22T09:44:02.216Z,7.39
2023-02-22T09:46:20.220Z,7.40
2023-02-22T09:48:25.351Z,7.61
2023-02-22T09:50:35.605Z,7.65
2023-02-22T09:52:44.840Z,7.60
2023-02-22T09:54:52.070Z,7.55
2023-02-22T09:56:58.973Z,7.59
2023-02-22T09:59:04.663Z,7.64
2023-02-22T10:01:20.590Z,7.67
2023-02-22T10:03:29.190Z,7.79
2023-02-22T10:05:37.626Z,7.82
2023-02-22T10:07:48.085Z,7.93
2023-02-22T10:09:51.262Z,7.92
2023-02-22T10:11:59.986Z,7.98
2023-02-22T10:14:15.546Z,8.01
2023-02-22T10:16:24.931Z,8.07
2023-02-22T10:19:00.185Z,8.09
2023-02-22T10:21:10.743Z,8.18
2023-02-22T10:23:25.981Z,8.23
2023-02-22T10:25:34.971Z,8.28
2023-02-22T10:27:41.210Z,8.52
2023-02-22T10:29:47.972Z,8.43
2023-02-22T10:31:55.586Z,8.51
2023-02-22T10:34:01.601Z,8.82
2023-02-22T10:36:05.032Z,8.78
2023-02-22T10:38:17.610Z,9.03
2023-02-22T10:40:23.029Z,8.95
2023-02-22T10:42:28.935Z,8.86
2023-02-22T10:44:31.504Z,8.84
2023-02-22T10:46:35.275Z,8.89
2023-02-22T10:48:41.185Z,9.28
2023-02-22T10:50:45.964Z,9.12
2023-02-22T10:52:48.998Z,9.10
2023-02-22T10:55:01.027Z,9.11
2023-02-22T10:57:09.410Z,9.12
2023-02-22T10:59:12.600Z,9.40
2023-02-22T11:01:27.596Z,9.53
2023-02-22T11:03:30.698Z,9.73
2023-02-22T11:05:37.198Z,9.83
2023-02-22T11:07:42.626Z,9.71
2023-02-22T11:09:53.276Z,9.71
2023-02-22T11:12:11.600Z,9.74
2023-02-22T11:14:25.499Z,9.86
2023-02-22T11:16:34.192Z,9.92
2023-02-22T11:18:39.991Z,9.84
2023-02-22T11:20:42.615Z,9.97
2023-02-22T11:22:48.228Z,9.88
2023-02-22T11:24:58.056Z,9.85
2023-02-22T11:27:03.556Z,9.83
2023-02-22T11:29:18.839Z,9.84
2023-02-22T11:31:23.831Z,9.84
2023-02-22T11:33:29.354Z,9.90
2023-02-22T11:35:37.026Z,9.92
2023-02-22T11:37:39.662Z,9.94
2023-02-22T11:39:43.855Z,9.96
2023-02-22T11:41:49.250Z,10.01
2023-02-22T11:43:54.346Z,10.03
2023-02-22T11:46:04.687Z,10.04
2023-02-22T11:48:09.154Z,10.07
2023-02-22T11:50:22.179Z,10.10
2023-02-22T11:52:31.099Z,10.21
2023-02-22T11:54:46.805Z,10.23
2023-02-22T11:56:51.416Z,10.30
2023-02-22T11:59:02.730Z,10.38
2023-02-22T12:01:17.445Z,10.38
2023-02-22T12:03:32.884Z,10.45
2023-02-22T12:06:00.649Z,10.57
2023-02-22T12:08:19.850Z,10.58
2023-02-22T12:10:35.040Z,10.64
2023-02-22T12:12:48.181Z,10.68
2023-02-22T12:15:00.962Z,10.72
2023-02-22T12:17:20.439Z,10.75
2023-02-22T12:19:30.425Z,10.81
2023-02-22T12:21:37.253Z,10.85
2023-02-22T12:23:45.767Z,10.88
2023-02-22T12:25:58.567Z,10.92
2023-02-22T12:28:23.670Z,10.98
2023-02-22T12:30:30.235Z,11.03
2023-02-22T12:32:41.699Z,11.08
2023-02-22T12:34:48.973Z,11.13
2023-02-22T12:36:56.627Z,11.18
2023-02-22T12:39:07.469Z,11.25
2023-02-22T12:41:18.410Z,11.34
2023-02-22T12:43:26.486Z,11.42
2023-02-22T12:45:36.872Z,11.49
2023-02-22T12:47:50.214Z,11.54
2023-02-22T12:49:58.371Z,11.60
2023-02-22T12:52:20.954Z,11.63
2023-02-22T12:54:37.840Z,11.70
2023-02-22T12:56:45.904Z,11.75
2023-02-22T12:58:54.966Z,11.86
2023-02-22T13:01:01.734Z,11.99
2023-02-22T13:03:17.986Z,12.15
2023-02-22T13:05:20.845Z,12.26
2023-02-22T13:07:39.242Z,12.51
2023-02-22T13:10:04.411Z,12.76
2023-02-22T13:12:17.430Z,12.90
2023-02-22T13:14:44.451Z,13.05
2023-02-22T13:16:55.279Z,13.08
2023-02-22T13:19:09.893Z,13.11
2023-02-22T13:21:19.951Z,13.42
2023-02-22T13:23:38.944Z,13.78
2023-02-22T13:25:49.939Z,14.14
2023-02-22T13:27:59.946Z,14.43
2023-02-22T13:30:03.885Z,14.59
2023-02-22T13:32:20.209Z,14.71
2023-02-22T13:34:44.848Z,14.86
2023-02-22T13:37:08.494Z,14.84
2023-02-22T13:39:40.953Z,14.55
2023-02-22T13:42:00.389Z,14.24
2023-02-22T13:44:19.766Z,13.93
2023-02-22T13:46:35.562Z,13.67
2023-02-22T13:49:06.502Z,13.46
2023-02-22T13:51:24.147Z,13.25
2023-02-22T13:53:32.868Z,13.10
2023-02-22T13:55:37.617Z,12.97
2023-02-22T13:57:48.134Z,12.86
2023-02-22T14:00:22.786Z,12.74
2023-02-22T14:02:55.288Z,12.70
2023-02-22T14:04:57.922Z,12.67
2023-02-22T14:07:02.962Z,12.71
2023-02-22T14:09:09.411Z,12.73
2023-02-22T14:11:48.620Z,12.77
2023-02-22T14:14:13.027Z,12.86
2023-02-22T14:16:24.550Z,13.00
2023-02-22T14:18:29.044Z,13.15
2023-02-22T14:20:35.207Z,13.31
2023-02-22T14:22:39.419Z,13.46
2023-02-22T14:24:45.302Z,13.60
2023-02-22T14:27:01.302Z,13.67
2023-02-22T14:29:16.997Z,13.71
2023-02-22T14:31:34.817Z,13.76
2023-02-22T14:33:59.577Z,13.77
2023-02-22T14:36:02.516Z,13.73
2023-02-22T14:38:15.644Z,13.66
2023-02-22T14:40:25.762Z,13.59
2023-02-22T14:42:32.952Z,13.58
2023-02-22T14:44:40.538Z,13.56
2023-02-22T14:46:50.101Z,13.50
2023-02-22T14:49:00.551Z,13.45
2023-02-22T14:51:20.261Z,13.44
2023-02-22T14:53:28.370Z,13.45
2023-02-22T14:55:34.482Z,13.42
2023-02-22T14:57:48.379Z,13.39
2023-02-22T15:00:11.881Z,13.35
2023-02-22T15:02:15.526Z,13.31
2023-02-22T15:04:19.776Z,13.28
2023-02-22T15:06:24.590Z,13.22
2023-02-22T15:08:29.187Z,13.17
2023-02-22T15:10:39.789Z,13.13
2023-02-22T15:12:42.419Z,13.06
2023-02-22T15:14:47.715Z,13.02
2023-02-22T15:16:52.993Z,12.96
2023-02-22T15:18:59.176Z,12.91
2023-02-22T15:21:07.175Z,12.88
2023-02-22T15:23:10.145Z,12.83
2023-02-22T15:25:14.658Z,12.78
2023-02-22T15:27:19.498Z,12.74
2023-02-22T15:29:24.646Z,12.71
2023-02-22T15:31:31.348Z,12.67
2023-02-22T15:33:38.096Z,12.65
2023-02-22T15:35:40.761Z,12.60
2023-02-22T15:37:44.668Z,12.56
2023-02-22T15:39:47.226Z,12.52
2023-02-22T15:42:02.242Z,12.48
2023-02-22T15:44:17.854Z,12.46
2023-02-22T15:46:25.238Z,12.42
2023-02-22T15:48:29.584Z,12.38
2023-02-22T15:50:34.033Z,12.36
2023-02-22T15:52:36.667Z,12.36
2023-02-22T15:54:46.601Z,12.33
2023-02-22T15:56:56.305Z,12.31
2023-02-22T15:59:03.724Z,12.29
2023-02-22T16:01:08.852Z,12.23
2023-02-22T16:03:14.321Z,12.22
2023-02-22T16:05:18.387Z,12.21
2023-02-22T16:07:21.319Z,12.17
2023-02-22T16:09:27.268Z,12.16
2023-02-22T16:11:33.399Z,12.13
2023-02-22T16:13:37.486Z,12.11
2023-02-22T16:15:40.267Z,12.09
2023-02-22T16:17:56.046Z,12.07
2023-02-22T16:20:35.413Z,12.03
2023-02-22T16:22:39.593Z,12.02
2023-02-22T16:24:42.420Z,12.01
2023-02-22T16:27:04.444Z,11.99
2023-02-22T16:29:09.706Z,11.95
2023-02-22T16:31:12.442Z,11.96
2023-02-22T16:33:16.585Z,11.94
2023-02-22T16:35:19.482Z,11.93
2023-02-22T16:37:24.846Z,11.90
2023-02-22T16:39:32.101Z,11.89
2023-02-22T16:41:34.803Z,11.86
2023-02-22T16:43:37.828Z,11.85
2023-02-22T16:45:42.475Z,11.83
2023-02-22T16:47:45.571Z,11.81
2023-02-22T16:49:53.716Z,11.78
2023-02-22T16:52:01.107Z,11.79
2023-02-22T16:54:05.202Z,11.82
2023-02-22T16:56:11.646Z,11.89
2023-02-22T16:58:15.828Z,11.91
2023-02-22T17:00:31.034Z,11.87
2023-02-22T17:02:34.289Z,11.83
2023-02-22T17:04:36.899Z,11.78
2023-02-22T17:06:39.500Z,11.74
2023-02-22T17:08:42.676Z,11.71
2023-02-22T17:10:47.300Z,11.67
2023-02-22T17:12:54.121Z,11.65
2023-02-22T17:14:57.117Z,11.64
2023-02-22T17:17:00.160Z,11.63
2023-02-22T17:19:04.979Z,11.62
2023-02-22T17:21:10.544Z,11.77
2023-02-22T17:23:13.480Z,11.84
2023-02-22T17:25:22.432Z,11.77
2023-02-22T17:27:26.450Z,11.72
2023-02-22T17:29:29.852Z,11.67
2023-02-22T17:31:32.858Z,11.63
2023-02-22T17:33:37.608Z,11.60
2023-02-22T17:35:41.046Z,11.59
2023-02-22T17:37:45.760Z,11.55
2023-02-22T17:39:48.317Z,11.61
2023-02-22T17:41:57.479Z,11.57
2023-02-22T17:44:02.254Z,11.66
2023-02-22T17:46:08.047Z,11.58
2023-02-22T17:48:11.069Z,11.58
2023-02-22T17:50:15.378Z,11.52
2023-02-22T17:52:17.974Z,11.65
2023-02-22T17:54:20.597Z,11.58
2023-02-22T17:56:23.210Z,11.52
2023-02-22T17:58:30.885Z,11.51
2023-02-22T18:00:38.819Z,11.42
2023-02-22T18:02:42.205Z,11.44
2023-02-22T18:04:44.795Z,11.42
2023-02-22T18:06:47.557Z,11.39
2023-02-22T18:08:55.832Z,11.34
2023-02-22T18:11:02.034Z,11.31
2023-02-22T18:13:04.755Z,11.27
2023-02-22T18:15:10.784Z,11.21
2023-02-22T18:17:14.652Z,11.24
2023-02-22T18:19:20.408Z,11.35
2023-02-22T18:21:26.747Z,11.26
2023-02-22T18:23:32.250Z,11.39
2023-02-22T18:25:35.496Z,11.20
2023-02-22T18:27:38.392Z,11.19
2023-02-22T18:29:40.991Z,11.17
2023-02-22T18:31:45.360Z,11.15
2023-02-22T18:33:51.040Z,11.15
2023-02-22T18:35:53.614Z,11.13
2023-02-22T18:37:56.294Z,11.15
2023-02-22T18:39:59.584Z,11.12
2023-02-22T18:42:02.160Z,11.24
2023-02-22T18:44:06.431Z,11.33
2023-02-22T18:46:10.000Z,11.26
2023-02-22T18:48:12.582Z,11.46
2023-02-22T18:50:17.449Z,11.48
2023-02-22T18:52:20.087Z,11.49
2023-02-22T18:54:22.719Z,11.37
2023-02-22T18:56:29.654Z,11.34
2023-02-22T18:58:32.817Z,11.36
2023-02-22T19:00:36.271Z,11.43
2023-02-22T19:02:38.851Z,11.51
2023-02-22T19:04:44.040Z,11.55
2023-02-22T19:06:49.730Z,11.43
2023-02-22T19:08:52.460Z,11.41
2023-02-22T19:10:55.058Z,11.41
2023-02-22T19:12:57.650Z,11.49
2023-02-22T19:15:00.410Z,11.34
2023-02-22T19:17:03.190Z,11.31
2023-02-22T19:19:06.226Z,11.32
2023-02-22T19:21:09.528Z,11.29
2023-02-22T19:23:13.478Z,11.36
2023-02-22T19:25:16.174Z,11.30
2023-02-22T19:27:18.787Z,11.36
2023-02-22T19:29:23.472Z,11.35
2023-02-22T19:31:31.592Z,11.34
2023-02-22T19:33:34.301Z,11.33
2023-02-22T19:35:37.249Z,11.31
2023-02-22T19:37:39.843Z,11.45
2023-02-22T19:39:43.821Z,11.45
2023-02-22T19:41:46.911Z,11.52
2023-02-22T19:43:50.981Z,11.47
2023-02-22T19:45:53.570Z,11.47
2023-02-22T19:47:56.481Z,11.36
2023-02-22T19:50:00.267Z,11.30
2023-02-22T19:52:03.809Z,11.26
2023-02-22T19:54:08.417Z,11.24
2023-02-22T19:56:16.063Z,11.25
2023-02-22T19:58:18.669Z,11.25
2023-02-22T20:00:24.755Z,11.36
2023-02-22T20:02:27.545Z,11.45
2023-02-22T20:04:30.478Z,11.37
2023-02-22T20:06:35.720Z,11.27
2023-02-22T20:08:42.268Z,11.26
2023-02-22T20:10:46.457Z,11.42
2023-02-22T20:12:50.346Z,11.38
2023-02-22T20:14:52.898Z,11.34
2023-02-22T20:16:56.734Z,11.36
2023-02-22T20:19:00.119Z,11.30
2023-02-22T20:21:07.500Z,11.19
2023-02-22T20:23:10.215Z,11.17
2023-02-22T20:25:13.614Z,11.16
2023-02-22T20:27:20.114Z,11.11
2023-02-22T20:29:29.442Z,11.12
2023-02-22T20:31:33.087Z,11.09
2023-02-22T20:33:35.948Z,11.09
2023-02-22T20:35:38.614Z,11.05
2023-02-22T20:37:42.620Z,11.21
2023-02-22T20:39:45.194Z,11.09
2023-02-22T20:41:47.860Z,11.03
2023-02-22T20:43:51.180Z,10.98
2023-02-22T20:45:55.132Z,10.94
2023-02-22T20:47:57.759Z,10.91
2023-02-22T20:50:00.357Z,10.89
2023-02-22T20:52:03.007Z,10.90
2023-02-22T20:57:27.028Z,10.86
2023-02-22T20:59:30.298Z,10.83
2023-02-22T21:01:34.482Z,10.79
2023-02-22T21:03:37.213Z,10.81
2023-02-22T21:05:42.780Z,10.79
2023-02-22T21:07:45.307Z,10.74
2023-02-22T21:09:47.838Z,10.71
2023-02-22T21:11:50.599Z,10.72
2023-02-22T21:13:53.615Z,10.67
2023-02-22T21:15:56.176Z,10.69
2023-02-22T21:18:52.435Z,10.66
2023-02-22T21:20:56.326Z,10.73
2023-02-22T21:23:01.815Z,10.68
2023-02-22T21:25:04.679Z,10.78
2023-02-22T21:27:07.252Z,10.82
2023-02-22T21:29:10.716Z,10.69
2023-02-22T21:31:14.428Z,10.63
2023-02-22T21:33:17.338Z,10.53
2023-02-22T21:35:21.327Z,10.47
2023-02-22T21:37:25.201Z,10.42
2023-02-22T21:39:28.961Z,10.35
2023-02-22T21:41:32.180Z,10.33
2023-02-22T21:43:34.708Z,10.31
2023-02-22T21:45:38.346Z,10.30
2023-02-22T21:47:41.495Z,10.28
2023-02-22T21:49:44.400Z,10.27
2023-02-22T21:51:46.940Z,10.27
2023-02-22T21:53:52.981Z,10.34
2023-02-22T21:55:55.526Z,10.28
2023-02-22T21:57:58.079Z,10.18
2023-02-22T22:00:00.630Z,10.17
2023-02-22T22:02:03.709Z,10.19
2023-02-22T22:04:06.728Z,10.10
2023-02-22T22:06:10.880Z,10.06
2023-02-22T22:08:19.429Z,10.04
2023-02-22T22:10:27.601Z,10.03
2023-02-22T22:12:38.743Z,10.04
2023-02-22T22:14:41.865Z,10.06
2023-02-22T22:16:47.783Z,10.06
2023-02-22T22:18:50.352Z,10.01
2023-02-22T22:20:52.894Z,10.00
2023-02-22T22:22:55.432Z,10.02
2023-02-22T22:24:57.981Z,10.02
2023-02-22T22:27:03.727Z,10.00
2023-02-22T22:29:09.888Z,10.05
2023-02-22T22:31:18.038Z,9.99
2023-02-22T22:33:21.098Z,10.05
2023-02-22T22:35:23.623Z,10.02
2023-02-22T22:37:27.932Z,9.91
2023-02-22T22:39:30.762Z,9.90
2023-02-22T22:41:33.840Z,9.91
2023-02-22T22:43:38.441Z,9.90
2023-02-22T22:45:40.989Z,9.96
2023-02-22T22:47:45.898Z,9.90
2023-02-22T22:49:50.244Z,9.85
2023-02-22T22:51:53.419Z,9.83
2023-02-22T22:53:55.974Z,9.83
2023-02-22T22:56:04.281Z,9.82
2023-02-22T22:58:06.819Z,9.81
2023-02-22T23:00:37.432Z,9.83
2023-02-22T23:02:40.561Z,9.92
2023-02-22T23:04:45.146Z,9.90
2023-02-22T23:06:50.621Z,9.86
2023-02-22T23:09:00.005Z,9.89
2023-02-22T23:11:09.084Z,9.89
2023-02-22T23:13:15.576Z,9.89
2023-02-22T23:15:19.628Z,9.88
2023-02-22T23:17:31.203Z,9.88
2023-02-22T23:19:34.775Z,9.86
2023-02-22T23:21:38.350Z,9.88
2023-02-22T23:23:41.179Z,9.89
2023-02-22T23:25:43.726Z,9.88
2023-02-22T23:27:46.739Z,9.88
2023-02-22T23:29:49.549Z,9.86
2023-02-22T23:31:54.461Z,9.87
2023-02-22T23:33:58.882Z,9.86
2023-02-22T23:36:01.444Z,9.84
2023-02-22T23:38:06.868Z,9.84
2023-02-22T23:40:16.914Z,9.85
2023-02-22T23:42:19.778Z,9.84
2023-02-22T23:44:22.437Z,9.81
2023-02-22T23:46:26.928Z,9.83
2023-02-22T23:48:31.012Z,9.82
2023-02-22T23:50:36.294Z,9.82
2023-02-22T23:52:38.861Z,9.82
2023-02-22T23:54:43.844Z,9.82
2023-02-22T23:56:56.117Z,9.89
2023-02-22T23:58:58.672Z,9.84
